Time;durP1;ratioP1;P1;durP2;ratioP2;P2;SDS_P1;SDS_P2;PMS_P1;PMS_P2;Temp;Humidity;BMP_temperature;BMP_pressure;BME280_temperature;BME280_humidity;BME280_pressure;Samples;Min_cycle;Max_cycle;Signal;HPM_P1;HPM_P2
2023/06/07 00:02:19;;;;;;;12.47;3.27;;;12.00;99.90;;;;;;4997605;28;20825;-68
2023/06/07 00:04:45;;;;;;;11.03;3.63;;;12.00;99.90;;;;;;4997927;28;20382;-68
2023/06/07 00:07:13;;;;;;;11.10;3.25;;;12.00;99.90;;;;;;4996580;28;20267;-68
2023/06/07 00:09:40;;;;;;;9.45;3.55;;;12.00;99.90;;;;;;4999468;28;20057;-68
2023/06/07 00:12:06;;;;;;;9.40;3.13;;;12.00;99.90;;;;;;5000502;28;20038;-68
2023/06/07 00:14:32;;;;;;;7.00;3.35;;;12.00;99.90;;;;;;5000329;28;20046;-69
2023/06/07 00:16:58;;;;;;;11.40;3.53;;;12.00;99.90;;;;;;5006227;28;20068;-67
2023/06/07 00:19:27;;;;;;;10.02;2.97;;;12.10;99.90;;;;;;5008178;28;20410;-67
2023/06/07 00:21:53;;;;;;;8.90;3.28;;;12.10;99.90;;;;;;5019202;22;20070;-69
2023/06/07 00:24:20;;;;;;;12.45;3.92;;;12.10;99.90;;;;;;5012553;28;20278;-69
2023/06/07 00:26:45;;;;;;;;;;;12.10;99.90;;;;;;4998868;28;20457;-69
2023/06/07 00:29:11;;;;;;;11.75;3.85;;;12.10;99.90;;;;;;5014834;28;19921;-69
2023/06/07 00:31:37;;;;;;;14.65;3.38;;;12.10;99.90;;;;;;5011594;28;20451;-69
2023/06/07 00:34:05;;;;;;;12.50;2.97;;;12.10;99.90;;;;;;5015419;28;20116;-69
2023/06/07 00:36:32;;;;;;;7.50;3.10;;;12.10;99.90;;;;;;5019408;28;20061;-69
2023/06/07 00:38:58;;;;;;;13.88;3.30;;;12.10;99.90;;;;;;5002507;28;20049;-69
2023/06/07 00:41:24;;;;;;;12.27;3.33;;;12.10;99.90;;;;;;5018133;28;20551;-69
2023/06/07 00:43:50;;;;;;;11.50;3.22;;;12.10;99.90;;;;;;5018664;28;20313;-69
2023/06/07 00:46:19;;;;;;;10.23;3.45;;;12.10;99.90;;;;;;5012969;28;21061;-69
2023/06/07 00:48:45;;;;;;;7.20;3.33;;;12.10;99.90;;;;;;5015117;28;20130;-69
2023/06/07 00:51:11;;;;;;;10.60;3.30;;;12.00;99.90;;;;;;5009713;28;20495;-69
2023/06/07 00:53:37;;;;;;;11.70;3.40;;;12.00;99.90;;;;;;4995469;28;20053;-69
2023/06/07 00:56:05;;;;;;;6.57;2.80;;;12.00;99.90;;;;;;4999665;28;20406;-70
2023/06/07 00:58:35;;;;;;;10.57;3.25;;;12.00;99.90;;;;;;5002045;28;20108;-69
2023/06/07 01:01:02;;;;;;;9.80;2.95;;;12.00;99.90;;;;;;5018544;28;20146;-69
2023/06/07 01:03:29;;;;;;;9.25;2.85;;;12.00;99.90;;;;;;5000459;28;20041;-69
2023/06/07 01:05:54;;;;;;;12.27;3.25;;;12.00;99.90;;;;;;4992606;28;20049;-69
2023/06/07 01:08:21;;;;;;;7.47;3.38;;;12.00;99.90;;;;;;4996815;28;20049;-72
2023/06/07 01:10:48;;;;;;;8.02;2.58;;;12.00;99.90;;;;;;5001372;28;20128;-69
2023/06/07 01:13:16;;;;;;;8.73;3.17;;;12.00;99.90;;;;;;5011317;28;20069;-69
2023/06/07 01:15:42;;;;;;;9.10;2.72;;;12.00;99.90;;;;;;4994561;28;20046;-69
2023/06/07 01:18:09;;;;;;;11.13;3.22;;;12.00;99.90;;;;;;5014141;28;20044;-69
2023/06/07 01:20:39;;;;;;;9.95;2.45;;;12.00;99.90;;;;;;5012828;28;20046;-69
2023/06/07 01:23:09;;;;;;;12.95;3.35;;;12.00;99.90;;;;;;5002559;28;20041;-69
2023/06/07 01:25:35;;;;;;;6.70;1.88;;;12.00;99.90;;;;;;4992631;28;20042;-69
2023/06/07 01:28:01;;;;;;;9.73;3.30;;;12.00;99.90;;;;;;5010366;28;20045;-69
2023/06/07 01:30:31;;;;;;;;;;;12.00;99.90;;;;;;4991933;28;20416;-69
2023/06/07 01:32:58;;;;;;;8.35;2.58;;;12.10;99.90;;;;;;5015264;28;19960;-69
2023/06/07 01:35:25;;;;;;;5.88;2.38;;;12.00;99.90;;;;;;4986159;28;20141;-69
2023/06/07 01:37:51;;;;;;;8.38;2.78;;;12.00;99.90;;;;;;4977507;28;20067;-69
2023/06/07 01:40:19;;;;;;;12.20;3.53;;;12.00;99.90;;;;;;5005753;28;20041;-69
2023/06/07 01:42:46;;;;;;;12.05;3.30;;;12.00;99.90;;;;;;5009169;28;20120;-69
2023/06/07 01:45:11;;;;;;;9.10;2.53;;;12.00;99.90;;;;;;4997526;28;20034;-69
2023/06/07 01:47:38;;;;;;;10.20;2.88;;;12.00;99.90;;;;;;5013332;28;20052;-69
2023/06/07 01:50:05;;;;;;;13.38;2.65;;;12.10;99.90;;;;;;5012124;28;20045;-69
2023/06/07 01:52:33;;;;;;;6.25;2.40;;;12.00;99.90;;;;;;4994772;28;20037;-69
2023/06/07 01:55:00;;;;;;;8.30;2.58;;;12.10;99.90;;;;;;5016247;28;20518;-71
2023/06/07 01:58:06;;;;;;;7.90;2.85;;;12.10;99.90;;;;;;4981162;28;20046;-69
2023/06/07 02:00:40;;;;;;;9.75;2.90;;;12.10;99.90;;;;;;4973356;28;20595;-69
2023/06/07 02:03:09;;;;;;;14.43;2.95;;;12.10;99.90;;;;;;5012335;28;20034;-73
2023/06/07 02:05:40;;;;;;;8.57;3.53;;;12.10;99.90;;;;;;5010027;28;20475;-72
2023/06/07 02:08:18;;;;;;;10.60;2.78;;;12.10;99.90;;;;;;4998373;28;20037;-68
2023/06/07 02:10:48;;;;;;;13.18;3.50;;;12.10;99.90;;;;;;5013365;28;20125;-68
2023/06/07 02:13:16;;;;;;;7.60;2.42;;;12.10;99.90;;;;;;5001055;28;20046;-71
2023/06/07 02:15:45;;;;;;;8.07;2.65;;;12.10;99.90;;;;;;4992707;28;20085;-69
2023/06/07 02:18:12;;;;;;;8.77;2.80;;;12.10;99.90;;;;;;4995625;28;20577;-69
2023/06/07 02:20:38;;;;;;;9.20;2.67;;;12.10;99.90;;;;;;4994734;28;20108;-68
2023/06/07 02:23:04;;;;;;;7.50;2.42;;;12.10;99.90;;;;;;4988927;28;20107;-69
2023/06/07 02:25:30;;;;;;;10.57;2.65;;;12.10;99.90;;;;;;5014353;28;20462;-69
2023/06/07 02:27:57;;;;;;;10.15;3.00;;;12.10;99.90;;;;;;4995502;28;20059;-69
2023/06/07 02:30:22;;;;;;;;;;;12.10;99.90;;;;;;5002801;28;20054;-68
2023/06/07 02:32:49;;;;;;;8.88;2.10;;;12.10;99.90;;;;;;5024238;28;19920;-68
2023/06/07 02:35:18;;;;;;;13.45;3.03;;;12.20;99.90;;;;;;4978989;28;20145;-69
2023/06/07 02:37:45;;;;;;;6.32;3.00;;;12.10;99.90;;;;;;5013065;28;20507;-69
2023/06/07 02:40:11;;;;;;;6.50;2.78;;;12.20;99.90;;;;;;4993614;28;20054;-68
2023/06/07 02:42:38;;;;;;;9.20;2.92;;;12.20;99.90;;;;;;5010464;28;20034;-69
2023/06/07 02:45:04;;;;;;;10.10;2.90;;;12.20;99.90;;;;;;5000264;28;20159;-69
2023/06/07 02:47:30;;;;;;;;;;;12.20;99.90;;;;;;5010842;28;20048;-69
2023/06/07 02:49:57;;;;;;;6.75;2.70;;;12.20;99.90;;;;;;5009680;28;20059;-68
2023/06/07 02:52:22;;;;;;;10.77;2.53;;;12.20;99.90;;;;;;5011682;28;20065;-69
2023/06/07 02:54:48;;;;;;;13.80;2.38;;;12.20;99.90;;;;;;4997881;28;20127;-69
2023/06/07 02:57:14;;;;;;;7.55;2.90;;;12.30;99.90;;;;;;5019381;28;20498;-69
2023/06/07 02:59:41;;;;;;;7.10;2.55;;;12.30;99.90;;;;;;5012872;28;20042;-70
2023/06/07 03:02:11;;;;;;;10.60;2.42;;;12.30;99.90;;;;;;4993825;28;20120;-70
2023/06/07 03:04:40;;;;;;;9.13;2.47;;;12.30;99.90;;;;;;4992571;28;20492;-70
2023/06/07 03:07:06;;;;;;;11.07;2.72;;;12.30;99.90;;;;;;5007517;28;20117;-70
2023/06/07 03:09:32;;;;;;;6.15;2.00;;;12.30;99.90;;;;;;5001545;28;20693;-69
2023/06/07 03:11:57;;;;;;;8.57;2.15;;;12.30;99.90;;;;;;5008560;28;20038;-70
2023/06/07 03:14:23;;;;;;;8.03;2.20;;;12.30;99.90;;;;;;5015687;28;20037;-70
2023/06/07 03:16:49;;;;;;;6.22;1.67;;;12.30;99.90;;;;;;4996037;28;20061;-70
2023/06/07 03:19:15;;;;;;;11.32;2.83;;;12.40;99.90;;;;;;4998009;28;20037;-70
2023/06/07 03:21:44;;;;;;;9.20;2.30;;;12.40;99.90;;;;;;4992399;28;20415;-70
2023/06/07 03:24:14;;;;;;;7.63;1.90;;;12.40;99.90;;;;;;5013976;28;20054;-69
2023/06/07 03:26:40;;;;;;;8.73;2.25;;;12.40;99.90;;;;;;5009275;28;20080;-70
2023/06/07 03:29:11;;;;;;;6.40;1.95;;;12.40;99.90;;;;;;5011265;28;20273;-70
2023/06/07 03:31:37;;;;;;;9.07;1.98;;;12.40;99.90;;;;;;5006688;28;20073;-70
2023/06/07 03:34:03;;;;;;;11.65;1.80;;;12.40;99.90;;;;;;4976982;28;20200;-69
2023/06/07 03:36:29;;;;;;;8.57;1.77;;;12.40;99.90;;;;;;5007382;28;20349;-70
2023/06/07 03:38:56;;;;;;;8.50;1.98;;;12.50;99.90;;;;;;4990926;28;20046;-69
2023/06/07 03:41:22;;;;;;;5.68;2.95;;;12.50;99.90;;;;;;5020600;28;20160;-69
2023/06/07 03:43:48;;;;;;;7.72;1.75;;;12.50;99.90;;;;;;5001953;28;20564;-69
2023/06/07 03:46:14;;;;;;;8.17;1.60;;;12.50;99.90;;;;;;4990514;28;20057;-69
2023/06/07 03:48:39;;;;;;;14.68;2.38;;;12.50;99.90;;;;;;4999604;28;20306;-69
2023/06/07 03:51:06;;;;;;;5.67;2.30;;;12.50;99.90;;;;;;4990939;28;20222;-69
2023/06/07 03:53:32;;;;;;;9.10;2.08;;;12.60;99.90;;;;;;4999143;28;20287;-69
2023/06/07 03:55:58;;;;;;;6.28;1.77;;;12.60;99.90;;;;;;4990708;28;20056;-69
2023/06/07 03:58:24;;;;;;;6.72;2.40;;;12.60;99.90;;;;;;4999677;28;20042;-69
2023/06/07 04:00:54;;;;;;;6.38;2.80;;;12.60;99.90;;;;;;4990813;28;20152;-69
2023/06/07 04:03:24;;;;;;;6.88;2.38;;;12.60;99.90;;;;;;4995154;28;20052;-69
2023/06/07 04:05:53;;;;;;;4.03;1.73;;;12.60;99.90;;;;;;5005480;28;20491;-69
2023/06/07 04:08:20;;;;;;;7.75;3.35;;;12.60;99.90;;;;;;5003577;28;20121;-69
2023/06/07 04:10:45;;;;;;;;;;;12.60;99.90;;;;;;4991007;28;20045;-69
2023/06/07 04:13:11;;;;;;;9.85;2.17;;;12.60;99.90;;;;;;4998741;28;19918;-69
2023/06/07 04:15:37;;;;;;;10.77;2.30;;;12.60;99.90;;;;;;5004889;28;20513;-69
2023/06/07 04:18:03;;;;;;;9.50;2.17;;;12.70;99.90;;;;;;4995863;28;20052;-69
2023/06/07 04:20:28;;;;;;;8.77;2.05;;;12.70;99.90;;;;;;5010367;28;20045;-69
2023/06/07 04:22:57;;;;;;;6.93;2.33;;;12.70;99.90;;;;;;4998488;28;20298;-69
2023/06/07 04:25:33;;;;;;;7.20;1.70;;;12.70;99.90;;;;;;4990796;28;20038;-69
2023/06/07 04:28:00;;;;;;;7.23;1.63;;;12.70;99.90;;;;;;5003437;28;20061;-69
2023/06/07 04:30:36;;;;;;;9.45;2.22;;;12.60;99.90;;;;;;5007629;28;20313;-69
2023/06/07 04:33:08;;;;;;;7.10;1.77;;;12.70;99.90;;;;;;4996653;28;20117;-69
2023/06/07 04:35:38;;;;;;;6.95;1.90;;;12.70;99.90;;;;;;5006627;28;20046;-69
2023/06/07 04:38:04;;;;;;;10.55;2.33;;;12.70;99.90;;;;;;4996029;28;20084;-69
2023/06/07 04:40:30;;;;;;;8.13;2.22;;;12.80;99.90;;;;;;5008269;28;20269;-69
2023/06/07 04:43:05;;;;;;;9.88;2.38;;;12.70;99.90;;;;;;5008927;28;20057;-69
2023/06/07 04:45:40;;;;;;;8.60;1.92;;;12.70;99.90;;;;;;4996060;28;20057;-69
2023/06/07 04:48:07;;;;;;;8.30;2.92;;;12.80;99.90;;;;;;5007308;28;20476;-69
2023/06/07 04:50:33;;;;;;;7.75;2.28;;;12.70;99.90;;;;;;4983795;28;20038;-69
2023/06/07 04:53:03;;;;;;;7.03;1.70;;;12.80;99.90;;;;;;4997994;28;20488;-69
2023/06/07 04:55:31;;;;;;;6.32;1.67;;;12.80;99.90;;;;;;5005459;28;20487;-69
2023/06/07 04:58:05;;;;;;;8.85;2.20;;;12.80;99.90;;;;;;5016566;28;20049;-69
2023/06/07 05:00:32;;;;;;;12.23;2.75;;;12.80;99.90;;;;;;5011889;28;20085;-69
2023/06/07 05:03:05;;;;;;;6.47;1.67;;;12.80;99.90;;;;;;5019214;28;20132;-70
2023/06/07 05:05:32;;;;;;;11.77;2.35;;;12.80;99.90;;;;;;5004320;28;20053;-69
2023/06/07 05:07:58;;;;;;;6.70;2.03;;;12.80;99.90;;;;;;5002002;28;20033;-70
2023/06/07 05:10:24;;;;;;;7.72;2.60;;;12.80;99.90;;;;;;5000811;28;20037;-70
2023/06/07 05:12:50;;;;;;;11.05;2.60;;;12.90;99.90;;;;;;4999343;28;20045;-70
2023/06/07 05:15:15;;;;;;;7.50;2.20;;;12.90;99.90;;;;;;4996457;28;21381;-70
2023/06/07 05:17:41;;;;;;;10.67;2.60;;;13.00;99.90;;;;;;5012812;28;20679;-70
2023/06/07 05:20:13;;;;;;;12.80;2.53;;;12.90;99.90;;;;;;5011705;28;20287;-70
2023/06/07 05:22:39;;;;;;;12.57;2.88;;;12.90;99.90;;;;;;5005767;28;20079;-69
2023/06/07 05:25:08;;;;;;;10.63;3.10;;;13.00;99.90;;;;;;5000194;28;20476;-70
2023/06/07 05:27:35;;;;;;;8.20;2.55;;;12.90;99.90;;;;;;5010341;28;20041;-69
2023/06/07 05:30:04;;;;;;;12.43;2.28;;;13.00;99.90;;;;;;5007122;28;20045;-70
2023/06/07 05:32:30;;;;;;;7.07;2.10;;;13.10;99.90;;;;;;4997679;28;20073;-70
2023/06/07 05:34:57;;;;;;;;;;;13.10;99.90;;;;;;4979655;28;20504;-69
2023/06/07 05:37:27;;;;;;;7.50;2.33;;;13.10;99.90;;;;;;5009602;28;19917;-69
2023/06/07 05:39:53;;;;;;;8.10;2.17;;;13.20;99.90;;;;;;4995078;28;20108;-69
2023/06/07 05:42:19;;;;;;;9.90;2.38;;;13.10;99.90;;;;;;4990509;28;20069;-69
2023/06/07 05:44:46;;;;;;;7.05;2.22;;;13.10;99.90;;;;;;5007073;28;20053;-70
2023/06/07 05:47:12;;;;;;;10.25;2.28;;;13.10;99.90;;;;;;5006847;28;20053;-70
2023/06/07 05:49:38;;;;;;;;;;;13.10;99.90;;;;;;4990879;28;20506;-74
2023/06/07 05:52:04;;;;;;;8.45;2.22;;;13.10;99.90;;;;;;4998653;28;19929;-73
2023/06/07 05:54:29;;;;;;;5.85;2.20;;;13.20;99.90;;;;;;4997594;28;20120;-70
2023/06/07 05:56:55;;;;;;;5.70;2.17;;;13.20;99.90;;;;;;5008633;28;20042;-70
2023/06/07 05:59:21;;;;;;;9.40;2.65;;;13.30;99.90;;;;;;4990635;28;20042;-70
2023/06/07 06:01:48;;;;;;;10.52;2.20;;;13.30;99.90;;;;;;4992985;28;20056;-70
2023/06/07 06:04:13;;;;;;;6.82;2.08;;;13.40;99.90;;;;;;4999271;28;20490;-70
2023/06/07 06:06:41;;;;;;;13.05;3.15;;;13.40;99.90;;;;;;4992524;28;20049;-70
2023/06/07 06:09:07;;;;;;;11.55;2.35;;;13.50;99.90;;;;;;5022451;28;20047;-70
2023/06/07 06:11:32;;;;;;;5.18;2.00;;;13.50;99.90;;;;;;4997136;28;20487;-70
2023/06/07 06:13:58;;;;;;;8.60;1.90;;;13.50;99.90;;;;;;4999077;28;20049;-70
2023/06/07 06:16:23;;;;;;;8.77;1.93;;;13.50;99.90;;;;;;5003453;28;20857;-69
2023/06/07 06:18:49;;;;;;;9.00;1.90;;;13.60;99.90;;;;;;5011969;28;20637;-69
2023/06/07 06:21:15;;;;;;;8.23;1.73;;;13.60;99.90;;;;;;4996695;28;20094;-70
2023/06/07 06:23:41;;;;;;;3.67;1.55;;;13.60;99.90;;;;;;5016169;23;20669;-67
2023/06/07 06:26:06;;;;;;;5.82;1.80;;;13.60;99.90;;;;;;5017521;28;20051;-67
2023/06/07 06:28:32;;;;;;;6.10;1.77;;;13.60;99.90;;;;;;5027190;28;20067;-67
2023/06/07 06:31:00;;;;;;;9.40;1.75;;;13.60;99.90;;;;;;5026565;28;20076;-67
2023/06/07 06:33:25;;;;;;;5.57;1.33;;;13.60;99.90;;;;;;4990839;28;20133;-67
2023/06/07 06:35:53;;;;;;;4.80;1.52;;;13.60;99.90;;;;;;4997917;28;20503;-66
2023/06/07 06:38:19;;;;;;;4.63;1.55;;;13.60;99.90;;;;;;5018928;28;20331;-67
2023/06/07 06:40:45;;;;;;;8.00;2.17;;;13.70;99.90;;;;;;5013100;28;20499;-66
2023/06/07 06:43:11;;;;;;;8.73;1.88;;;13.80;99.90;;;;;;5037543;28;20257;-66
2023/06/07 06:45:36;;;;;;;;;;;13.80;99.90;;;;;;5024498;28;20452;-67
2023/06/07 06:48:03;;;;;;;7.30;1.55;;;14.00;99.90;;;;;;5018669;28;20147;-67
2023/06/07 06:50:29;;;;;;;6.68;1.48;;;14.00;99.90;;;;;;5029924;28;20056;-67
2023/06/07 06:52:55;;;;;;;3.72;1.77;;;14.10;99.90;;;;;;5026347;28;20124;-66
2023/06/07 06:55:21;;;;;;;5.35;1.92;;;14.20;99.90;;;;;;5014553;28;20084;-66
2023/06/07 06:57:46;;;;;;;6.22;1.40;;;14.20;99.90;;;;;;5001703;28;20486;-64
2023/06/07 07:00:12;;;;;;;5.88;1.67;;;14.20;99.90;;;;;;5000906;28;20094;-64
2023/06/07 07:02:38;;;;;;;6.78;2.25;;;14.30;99.90;;;;;;5016157;28;20155;-65
2023/06/07 07:05:09;;;;;;;7.30;1.60;;;14.30;99.90;;;;;;5015761;28;20468;-64
2023/06/07 07:07:34;;;;;;;3.15;1.33;;;14.30;99.90;;;;;;5004671;28;20421;-65
2023/06/07 07:10:01;;;;;;;4.47;1.70;;;14.30;99.90;;;;;;5009420;28;20116;-65
2023/06/07 07:12:26;;;;;;;;;;;14.30;99.90;;;;;;5006224;28;20046;-65
2023/06/07 07:14:52;;;;;;;8.45;1.70;;;14.30;99.90;;;;;;5019354;28;20290;-66
2023/06/07 07:17:19;;;;;;;7.10;1.75;;;14.30;99.90;;;;;;5003247;28;20049;-64
2023/06/07 07:19:45;;;;;;;4.53;1.58;;;14.30;99.90;;;;;;5023119;28;20042;-65
2023/06/07 07:22:11;;;;;;;9.05;2.42;;;14.30;99.90;;;;;;5023493;28;20384;-64
2023/06/07 07:24:37;;;;;;;7.13;1.42;;;14.30;99.90;;;;;;5019885;28;20442;-64
2023/06/07 07:27:03;;;;;;;6.75;1.85;;;14.30;99.90;;;;;;5016805;28;20517;-65
2023/06/07 07:29:29;;;;;;;5.75;1.70;;;14.30;99.90;;;;;;5018410;28;20037;-65
2023/06/07 07:31:55;;;;;;;6.28;1.50;;;14.30;99.90;;;;;;5021698;28;20046;-65
2023/06/07 07:34:21;;;;;;;5.22;1.75;;;14.40;99.90;;;;;;5021003;28;20140;-65
2023/06/07 07:36:46;;;;;;;5.32;1.52;;;14.40;99.90;;;;;;5007621;28;20131;-65
2023/06/07 07:39:15;;;;;;;4.32;1.75;;;14.50;99.90;;;;;;5022968;28;20111;-64
2023/06/07 07:41:41;;;;;;;4.65;1.83;;;14.40;99.90;;;;;;5019042;28;20065;-64
2023/06/07 07:44:07;;;;;;;6.80;1.63;;;14.40;99.90;;;;;;5025987;28;20071;-64
2023/06/07 07:46:33;;;;;;;5.90;2.00;;;14.50;99.90;;;;;;5011662;28;20081;-64
2023/06/07 07:48:58;;;;;;;3.93;1.73;;;14.50;99.90;;;;;;5000995;28;20049;-65
2023/06/07 07:51:24;;;;;;;8.15;1.95;;;14.50;99.90;;;;;;5006739;28;20320;-65
2023/06/07 07:53:53;;;;;;;8.43;1.75;;;14.60;99.90;;;;;;5015101;28;20504;-66
2023/06/07 07:56:21;;;;;;;5.43;1.70;;;14.70;99.90;;;;;;5014736;28;20564;-65
2023/06/07 07:58:48;;;;;;;5.65;1.63;;;14.70;99.90;;;;;;5000698;28;20056;-65
2023/06/07 08:01:20;;;;;;;7.82;2.13;;;14.70;99.90;;;;;;5024189;28;20041;-65
2023/06/07 08:03:47;;;;;;;5.75;1.73;;;14.70;99.90;;;;;;5016472;28;20079;-65
2023/06/07 08:06:13;;;;;;;5.50;1.95;;;14.90;99.90;;;;;;5022912;28;20120;-65
2023/06/07 08:08:38;;;;;;;5.20;1.80;;;15.00;99.90;;;;;;5014604;28;20444;-65
2023/06/07 08:11:04;;;;;;;8.88;2.60;;;15.00;99.90;;;;;;5009158;28;20132;-64
2023/06/07 08:13:30;;;;;;;4.80;1.90;;;15.10;99.90;;;;;;5015695;28;20097;-66
2023/06/07 08:15:56;;;;;;;5.15;1.55;;;15.20;99.90;;;;;;5022780;28;20064;-64
2023/06/07 08:18:21;;;;;;;9.52;2.50;;;15.30;99.90;;;;;;5005405;28;20061;-65
2023/06/07 08:20:47;;;;;;;5.10;2.40;;;15.40;99.90;;;;;;5020689;28;20053;-65
2023/06/07 08:23:13;;;;;;;8.50;1.90;;;15.50;99.90;;;;;;5017082;28;20042;-66
2023/06/07 08:25:38;;;;;;;5.43;2.55;;;15.60;99.90;;;;;;5002239;28;20460;-65
2023/06/07 08:28:04;;;;;;;5.90;2.25;;;15.70;99.90;;;;;;4999004;28;20045;-65
2023/06/07 08:30:31;;;;;;;9.57;2.10;;;15.70;99.90;;;;;;5018719;28;20518;-65
2023/06/07 08:32:57;;;;;;;8.00;2.00;;;15.80;99.90;;;;;;5001594;28;20041;-65
2023/06/07 08:35:23;;;;;;;7.13;2.08;;;15.90;99.90;;;;;;4997744;28;20080;-65
2023/06/07 08:37:48;;;;;;;5.93;1.70;;;16.00;99.90;;;;;;5018725;28;20037;-65
2023/06/07 08:40:18;;;;;;;8.02;2.40;;;16.10;99.90;;;;;;5017997;28;20041;-66
2023/06/07 08:42:44;;;;;;;4.25;2.25;;;16.20;99.90;;;;;;5031632;28;20122;-65
2023/06/07 08:45:10;;;;;;;6.40;1.50;;;16.30;99.90;;;;;;5023844;28;20091;-65
2023/06/07 08:47:36;;;;;;;;;;;16.30;99.90;;;;;;5005079;28;20103;-66
2023/06/07 08:50:03;;;;;;;7.85;2.13;;;16.40;99.90;;;;;;5000712;28;19921;-65
2023/06/07 08:52:31;;;;;;;7.85;1.80;;;16.50;99.90;;;;;;5020402;28;20037;-65
2023/06/07 08:54:59;;;;;;;5.72;2.15;;;16.60;99.90;;;;;;5027719;28;20038;-64
2023/06/07 08:57:26;;;;;;;4.63;1.98;;;16.70;99.90;;;;;;5005406;28;20105;-65
2023/06/07 08:59:52;;;;;;;6.88;2.28;;;16.80;99.90;;;;;;5020297;28;20046;-65
2023/06/07 09:02:19;;;;;;;;;;;16.90;99.90;;;;;;5025848;28;20091;-65
2023/06/07 09:04:45;;;;;;;;;;;17.00;99.90;;;;;;5010629;28;20338;-65
2023/06/07 09:07:12;;;;;;;6.15;1.67;;;17.00;99.90;;;;;;5019890;28;19933;-65
2023/06/07 09:09:41;;;;;;;10.63;2.05;;;17.10;99.90;;;;;;5016149;28;20042;-66
2023/06/07 09:12:07;;;;;;;9.98;2.33;;;17.20;99.90;;;;;;5022338;28;20112;-65
2023/06/07 09:14:34;;;;;;;12.85;2.15;;;17.30;99.90;;;;;;5021954;28;20463;-66
2023/06/07 09:17:00;;;;;;;8.73;2.22;;;17.40;99.90;;;;;;5028003;28;20093;-65
2023/06/07 09:19:29;;;;;;;6.63;2.08;;;17.40;99.90;;;;;;4999934;28;20057;-65
2023/06/07 09:21:56;;;;;;;5.60;2.00;;;17.40;99.90;;;;;;5022072;28;20376;-64
2023/06/07 09:24:27;;;;;;;4.55;2.42;;;17.50;99.90;;;;;;5000752;28;20045;-67
2023/06/07 09:26:53;;;;;;;7.50;2.40;;;17.70;99.90;;;;;;5020094;28;20124;-66
2023/06/07 09:29:19;;;;;;;10.10;2.05;;;17.80;99.90;;;;;;5020339;28;20322;-66
2023/06/07 09:31:45;;;;;;;4.55;2.30;;;17.80;99.90;;;;;;5022245;28;20073;-66
2023/06/07 09:34:22;;;;;;;10.75;2.20;;;17.80;99.90;;;;;;5003266;28;20111;-66
2023/06/07 09:36:52;;;;;;;5.32;2.10;;;17.90;99.90;;;;;;5023321;28;20932;-65
2023/06/07 09:39:26;;;;;;;6.40;2.05;;;17.90;99.90;;;;;;5016621;28;20510;-64
2023/06/07 09:41:54;;;;;;;6.63;2.55;;;18.00;99.90;;;;;;5021849;28;20048;-65
2023/06/07 09:44:26;;;;;;;15.63;2.30;;;18.00;99.90;;;;;;5010657;28;20048;-66
2023/06/07 09:46:53;;;;;;;9.02;2.33;;;18.10;99.90;;;;;;5020661;28;20421;-66
2023/06/07 09:49:37;;;;;;;7.75;2.25;;;18.20;99.90;;;;;;5007094;28;20038;-65
2023/06/07 09:52:13;;;;;;;7.20;2.22;;;18.30;99.90;;;;;;5000506;28;20500;-65
2023/06/07 09:54:44;;;;;;;4.32;1.77;;;18.40;99.90;;;;;;5020058;28;20501;-66
2023/06/07 09:57:24;;;;;;;7.20;2.15;;;18.40;99.90;;;;;;5004540;28;20045;-66
2023/06/07 10:00:16;;;;;;;6.13;2.42;;;18.50;99.90;;;;;;5017164;28;20482;-65
2023/06/07 10:02:43;;;;;;;5.82;2.17;;;18.60;99.90;;;;;;5000740;28;20154;-66
2023/06/07 10:05:09;;;;;;;5.82;2.25;;;18.80;99.90;;;;;;5013475;28;20045;-65
2023/06/07 10:07:56;;;;;;;7.05;2.75;;;18.80;99.90;;;;;;4999407;28;20049;-65
2023/06/07 10:10:24;;;;;;;6.03;2.22;;;18.80;99.90;;;;;;4997713;28;20034;-65
2023/06/07 10:12:51;;;;;;;8.25;2.65;;;18.80;99.90;;;;;;5009998;28;20085;-65
2023/06/07 10:15:24;;;;;;;7.30;2.95;;;18.80;99.90;;;;;;5020430;28;20455;-68
2023/06/07 10:18:12;;;;;;;6.90;2.17;;;18.80;99.90;;;;;;5001580;28;20056;-69
2023/06/07 10:21:05;;;;;;;8.57;3.20;;;18.90;99.90;;;;;;4998347;28;20448;-68
2023/06/07 10:23:50;;;;;;;6.95;2.70;;;19.00;99.90;;;;;;5008633;28;20122;-68
2023/06/07 10:26:37;;;;;;;6.57;2.25;;;19.00;99.90;;;;;;5000833;28;20046;-67
2023/06/07 10:29:16;;;;;;;;;;;19.00;99.90;;;;;;5019752;28;20042;-66
2023/06/07 10:31:47;;;;;;;7.00;2.22;;;19.10;99.90;;;;;;5004092;28;20034;-66
2023/06/07 10:34:14;;;;;;;7.30;2.45;;;19.20;99.90;;;;;;5020696;28;20034;-66
2023/06/07 10:36:41;;;;;;;5.07;2.20;;;19.40;99.90;;;;;;4995775;28;20199;-67
2023/06/07 10:39:11;;;;;;;7.68;2.60;;;19.40;99.90;;;;;;4997285;28;20125;-66
2023/06/07 10:41:37;;;;;;;4.78;2.20;;;19.40;99.90;;;;;;5000810;28;20121;-67
2023/06/07 10:44:03;;;;;;;3.50;2.20;;;19.50;99.90;;;;;;5022628;28;20305;-66
2023/06/07 10:46:29;;;;;;;6.63;2.22;;;19.40;99.90;;;;;;5004480;28;20045;-67
2023/06/07 10:48:59;;;;;;;7.85;2.05;;;19.40;99.90;;;;;;5012849;28;20078;-67
2023/06/07 10:51:44;;;;;;;8.10;2.13;;;19.60;99.90;;;;;;5003497;28;20124;-67
2023/06/07 10:54:10;;;;;;;7.85;2.30;;;19.70;99.90;;;;;;5024279;28;20403;-67
2023/06/07 10:56:37;;;;;;;7.65;2.80;;;19.90;99.90;;;;;;5025479;28;20037;-67
2023/06/07 10:59:15;;;;;;;8.00;3.08;;;20.00;99.90;;;;;;5025850;28;20169;-67
2023/06/07 11:01:43;;;;;;;7.85;3.72;;;20.00;99.90;;;;;;5020322;28;20136;-67
2023/06/07 11:04:31;;;;;;;9.45;2.75;;;19.90;99.90;;;;;;5018663;28;20458;-66
2023/06/07 11:07:37;;;;;;;7.88;2.00;;;20.00;99.90;;;;;;5013240;28;20049;-66
2023/06/07 11:10:03;;;;;;;7.95;2.30;;;20.10;99.90;;;;;;5018650;28;20038;-67
2023/06/07 11:12:34;;;;;;;8.23;2.38;;;20.30;99.90;;;;;;5022839;28;20079;-67
2023/06/07 11:15:24;;;;;;;5.55;2.42;;;20.30;99.90;;;;;;4992777;28;20415;-67
2023/06/07 11:18:00;;;;;;;8.60;2.78;;;20.40;99.90;;;;;;4998127;28;20180;-67
2023/06/07 11:20:38;;;;;;;6.13;2.25;;;20.50;99.90;;;;;;5016818;28;20073;-67
2023/06/07 11:23:30;;;;;;;9.05;2.53;;;20.60;99.90;;;;;;4996925;28;20128;-67
2023/06/07 11:26:05;;;;;;;9.23;2.30;;;20.60;99.90;;;;;;5017470;28;20075;-67
2023/06/07 11:28:31;;;;;;;9.50;2.13;;;20.70;99.90;;;;;;5000105;28;20411;-67
2023/06/07 11:30:58;;;;;;;;;;;20.80;99.90;;;;;;5023943;28;20125;-68
2023/06/07 11:33:25;;;;;;;8.40;3.25;;;20.90;99.90;;;;;;5017591;28;20417;-67
2023/06/07 11:35:52;;;;;;;8.88;2.88;;;20.90;99.90;;;;;;5019159;28;20383;-66
2023/06/07 11:38:18;;;;;;;11.32;3.42;;;20.90;99.90;;;;;;4992760;28;20376;-67
2023/06/07 11:40:45;;;;;;;7.85;3.03;;;20.90;99.90;;;;;;5022405;28;20452;-67
2023/06/07 11:43:12;;;;;;;7.38;2.90;;;20.90;99.90;;;;;;5025188;28;20048;-71
2023/06/07 11:45:44;;;;;;;7.15;3.17;;;20.90;99.90;;;;;;4994865;28;20080;-73
2023/06/07 11:48:10;;;;;;;8.25;3.50;;;20.90;99.90;;;;;;4996495;28;20084;-71
2023/06/07 11:50:36;;;;;;;;;;;21.00;99.90;;;;;;5006384;28;20045;-75
2023/06/07 11:53:02;;;;;;;7.30;3.03;;;21.00;99.90;;;;;;4995356;28;19918;-74
2023/06/07 11:55:28;;;;;;;7.43;3.17;;;21.10;99.90;;;;;;4996605;28;20122;-74
2023/06/07 11:57:54;;;;;;;12.98;3.42;;;21.20;99.90;;;;;;4996972;28;20049;-74
2023/06/07 12:00:21;;;;;;;11.50;3.20;;;21.30;99.90;;;;;;4986959;28;20061;-69
2023/06/07 12:02:48;;;;;;;7.38;2.90;;;21.40;99.90;;;;;;4998377;28;20053;-67
2023/06/07 12:05:14;;;;;;;7.38;2.90;;;21.40;99.90;;;;;;5014115;28;20056;-67
2023/06/07 12:07:41;;;;;;;8.95;2.88;;;21.40;99.90;;;;;;5021235;28;20038;-67
2023/06/07 12:10:08;;;;;;;7.85;2.63;;;21.40;99.90;;;;;;5007289;28;20160;-67
2023/06/07 12:12:34;;;;;;;6.70;2.70;;;21.50;99.90;;;;;;5006241;28;20049;-67
2023/06/07 12:15:01;;;;;;;8.77;2.30;;;21.70;99.90;;;;;;5012763;28;20056;-67
2023/06/07 12:17:35;;;;;;;8.65;2.63;;;21.80;99.90;;;;;;5002954;28;20048;-67
2023/06/07 12:20:09;;;;;;;7.88;2.30;;;21.90;99.90;;;;;;5004008;28;20132;-68
2023/06/07 12:22:48;;;;;;;6.43;2.20;;;21.90;99.90;;;;;;5090257;22;20052;-81
2023/06/07 12:25:18;;;;;;;4.75;1.98;;;22.10;99.90;;;;;;5011089;28;20060;-82
2023/06/07 12:27:55;;;;;;;10.82;2.60;;;22.10;99.90;;;;;;5010482;28;20125;-81
2023/06/07 12:30:40;;;;;;;8.50;2.20;;;22.20;99.90;;;;;;5027994;28;20030;-82
2023/06/07 12:33:33;;;;;;;6.43;2.47;;;22.40;99.90;;;;;;5025206;28;20046;-81
2023/06/07 12:36:04;;;;;;;6.30;2.53;;;22.40;99.90;;;;;;5009488;28;20037;-81
2023/06/07 12:38:39;;;;;;;8.55;2.45;;;22.30;99.90;;;;;;5014077;28;20041;-81
2023/06/07 12:41:32;;;;;;;6.80;2.33;;;22.40;99.90;;;;;;5034043;28;20561;-81
2023/06/07 12:44:40;;;;;;;7.05;2.35;;;22.40;99.90;;;;;;5029252;28;20435;-81
2023/06/07 12:47:05;;;;;;;7.22;2.38;;;22.50;99.90;;;;;;5026886;28;20132;-82
2023/06/07 12:49:31;;;;;;;7.25;2.58;;;22.50;99.90;;;;;;5027193;28;20041;-82
2023/06/07 12:52:35;;;;;;;10.30;2.83;;;22.60;99.90;;;;;;5028047;28;20049;-81
2023/06/07 12:55:06;;;;;;;10.65;2.35;;;22.80;99.90;;;;;;5017773;28;20073;-80
2023/06/07 12:57:35;;;;;;;8.05;2.63;;;22.90;99.90;;;;;;5012397;28;20029;-81